Terminal Aerodrome Forecast
Issued by NWS Greer, SC

Current Version | Previous Version | Text Only | Print | Product List | Glossary On
Versions: 1 2 3 4 5 6 7 8 9 10 11 12 13 14 15 16 17 18 19 20 21 22 23 24 25 26 27 28 29 30 31 32
000
FTUS42 KGSP 251120
TAFCLT
TAF
KCLT 251120Z 2512/2612 24007KT P6SM SCT035
      TEMPO 2512/2514 BKN008
     FM251400 25009KT P6SM SCT030
     FM251700 24012G20KT P6SM SCT040 BKN070
      TEMPO 2517/2521 4SM -SHRA OVC040
     FM260000 25008KT P6SM SCT070=

USA.gov is the U.S. government's official web portal to all federal, state and local government web resources and services.